Time;durP1;ratioP1;P1;durP2;ratioP2;P2;SDS_P1;SDS_P2;PMS_P1;PMS_P2;Temp;Humidity;BMP_temperature;BMP_pressure;BME280_temperature;BME280_humidity;BME280_pressure;Samples;Min_cycle;Max_cycle;Signal;HPM_P1;HPM_P2
2022/04/18 00:01:45;;;;;;;6.83;3.70;;;7.50;60.40;;;;;;5014048;28;20298;-77
2022/04/18 00:04:10;;;;;;;4.83;3.10;;;7.50;60.60;;;;;;5013284;28;20237;-77
2022/04/18 00:06:36;;;;;;;4.43;3.10;;;7.40;60.30;;;;;;5016005;28;20227;-77
2022/04/18 00:09:06;;;;;;;8.47;4.60;;;7.30;60.40;;;;;;5020704;28;20232;-77
2022/04/18 00:11:32;;;;;;;5.83;3.60;;;7.30;60.90;;;;;;5018889;28;20204;-76
2022/04/18 00:13:58;;;;;;;6.20;3.50;;;7.30;61.20;;;;;;5013709;28;20421;-76
2022/04/18 00:16:25;;;;;;;4.37;3.40;;;7.30;60.90;;;;;;5011668;28;20487;-77
2022/04/18 00:18:51;;;;;;;7.00;3.30;;;7.30;60.30;;;;;;5013501;28;20450;-76
2022/04/18 00:21:17;;;;;;;7.70;3.33;;;7.20;60.00;;;;;;5018745;28;21244;-77
2022/04/18 00:23:44;;;;;;;6.30;3.70;;;7.20;59.90;;;;;;5014591;28;20472;-76
2022/04/18 00:26:10;;;;;;;5.27;3.43;;;7.10;60.40;;;;;;5025463;28;20439;-77
2022/04/18 00:28:35;;;;;;;6.37;3.27;;;7.20;60.70;;;;;;5015243;28;20429;-76
2022/04/18 00:31:01;;;;;;;5.23;3.50;;;7.10;61.50;;;;;;5020518;28;20523;-77
2022/04/18 00:33:27;;;;;;;5.20;3.17;;;7.20;61.70;;;;;;5017119;28;20193;-77
2022/04/18 00:35:53;;;;;;;5.73;3.60;;;7.20;61.70;;;;;;5007207;28;20213;-77
2022/04/18 00:38:19;;;;;;;6.07;3.60;;;7.10;61.90;;;;;;5011778;28;20456;-77
2022/04/18 00:40:45;;;;;;;5.67;3.73;;;7.20;61.70;;;;;;5009595;28;20217;-77
2022/04/18 00:43:11;;;;;;;6.00;3.47;;;7.10;61.90;;;;;;5012744;28;20496;-76
2022/04/18 00:45:37;;;;;;;6.33;3.40;;;7.10;61.90;;;;;;5017517;28;20424;-77
2022/04/18 00:48:03;;;;;;;5.37;3.37;;;7.10;62.00;;;;;;5011212;28;20540;-77
2022/04/18 00:50:31;;;;;;;5.67;3.20;;;7.10;62.00;;;;;;5021654;28;20262;-77
2022/04/18 00:52:58;;;;;;;5.23;3.07;;;7.00;62.00;;;;;;5011273;28;20421;-77
2022/04/18 00:55:26;;;;;;;7.70;3.90;;;7.00;62.20;;;;;;5018372;28;20937;-77
2022/04/18 00:57:54;;;;;;;6.37;3.60;;;7.00;62.20;;;;;;5007256;28;20998;-78
2022/04/18 01:00:20;;;;;;;5.30;3.40;;;6.90;62.30;;;;;;5022088;28;20432;-76
2022/04/18 01:02:46;;;;;;;7.70;4.17;;;6.90;62.60;;;;;;5015064;28;21045;-77
2022/04/18 01:05:12;;;;;;;5.40;3.60;;;6.90;62.90;;;;;;5016818;28;20429;-78
2022/04/18 01:07:39;;;;;;;6.63;3.80;;;6.90;63.50;;;;;;5016213;28;20301;-76
2022/04/18 01:10:05;;;;;;;6.30;3.77;;;6.90;63.80;;;;;;5020676;28;20190;-77
2022/04/18 01:12:31;;;;;;;6.10;3.90;;;6.90;64.40;;;;;;5017776;28;20505;-76
2022/04/18 01:14:57;;;;;;;5.27;3.93;;;6.80;64.40;;;;;;5014960;28;20880;-78
2022/04/18 01:17:23;;;;;;;5.43;3.90;;;6.60;66.10;;;;;;5010389;28;20452;-76
2022/04/18 01:19:49;;;;;;;8.13;4.13;;;6.60;66.90;;;;;;5016268;28;20483;-76
2022/04/18 01:22:15;;;;;;;8.27;3.80;;;6.50;67.30;;;;;;5020994;28;20549;-77
2022/04/18 01:30:12;;;;;;;5.47;3.57;;;6.40;66.10;;;;;;5005743;28;20447;-76
2022/04/18 01:32:38;;;;;;;6.07;3.50;;;6.40;66.10;;;;;;5017113;28;20903;-76
2022/04/18 01:35:05;;;;;;;4.70;3.27;;;6.40;66.30;;;;;;5011996;28;20469;-76
2022/04/18 01:37:30;;;;;;;3.50;2.80;;;6.40;66.40;;;;;;5012669;28;20611;-77
2022/04/18 01:39:56;;;;;;;7.30;3.50;;;6.40;66.10;;;;;;5015616;28;20437;-77
2022/04/18 01:42:22;;;;;;;3.13;2.80;;;6.40;66.10;;;;;;5020538;28;20209;-77
2022/04/18 01:44:48;;;;;;;4.53;3.10;;;6.40;66.00;;;;;;5016040;28;20947;-76
2022/04/18 01:47:14;;;;;;;4.87;3.30;;;6.30;66.00;;;;;;5017677;28;20932;-77
2022/04/18 01:49:40;;;;;;;4.00;3.30;;;6.30;65.80;;;;;;5018987;28;20431;-76
2022/04/18 01:52:06;;;;;;;5.20;3.30;;;6.20;66.00;;;;;;5018404;28;20518;-77
2022/04/18 01:54:32;;;;;;;5.17;3.70;;;6.20;66.10;;;;;;5018757;28;20490;-76
2022/04/18 01:56:58;;;;;;;5.43;3.50;;;6.20;66.40;;;;;;5019979;28;20794;-77
2022/04/18 01:59:24;;;;;;;5.30;4.03;;;6.20;66.70;;;;;;5016147;28;20455;-77
2022/04/18 02:01:50;;;;;;;9.70;4.33;;;6.10;67.20;;;;;;5017776;28;20243;-77
2022/04/18 02:04:16;;;;;;;8.67;4.47;;;6.10;68.20;;;;;;5019954;28;20508;-77
2022/04/18 02:06:41;;;;;;;6.33;4.30;;;6.10;68.20;;;;;;5017660;28;20509;-76
2022/04/18 02:09:07;;;;;;;7.20;4.40;;;6.10;68.30;;;;;;5016346;28;20428;-77
2022/04/18 02:11:33;;;;;;;7.07;4.20;;;6.00;68.80;;;;;;5027362;28;20284;-77
2022/04/18 02:13:59;;;;;;;8.93;4.17;;;6.00;69.10;;;;;;5011296;28;20240;-76
2022/04/18 02:16:28;;;;;;;8.07;4.47;;;5.90;69.50;;;;;;5025757;28;20214;-77
2022/04/18 02:18:54;;;;;;;5.33;3.97;;;5.90;69.80;;;;;;5018786;28;20189;-77
2022/04/18 02:21:20;;;;;;;5.50;3.93;;;5.80;70.20;;;;;;5027992;28;20507;-77
2022/04/18 02:23:45;;;;;;;6.83;4.00;;;5.80;70.40;;;;;;5032060;28;20550;-75
2022/04/18 02:26:11;;;;;;;6.00;4.23;;;5.80;70.70;;;;;;5029451;28;20228;-77
2022/04/18 02:28:37;;;;;;;6.67;4.60;;;5.80;70.80;;;;;;5019890;28;20281;-77
2022/04/18 02:31:04;;;;;;;7.07;4.00;;;5.80;70.40;;;;;;5019182;28;20186;-77
2022/04/18 02:33:30;;;;;;;7.03;3.60;;;5.80;69.80;;;;;;5018891;28;20800;-75
2022/04/18 02:35:55;;;;;;;6.77;3.50;;;5.70;70.10;;;;;;5013074;28;20437;-78
2022/04/18 02:38:21;;;;;;;6.90;3.80;;;5.80;69.80;;;;;;5015945;28;20201;-77
2022/04/18 02:40:47;;;;;;;4.70;4.00;;;5.80;69.70;;;;;;5011027;28;20915;-77
2022/04/18 02:43:13;;;;;;;6.90;4.30;;;5.80;69.50;;;;;;5012336;28;20214;-77
2022/04/18 02:45:38;;;;;;;6.67;3.77;;;5.70;69.70;;;;;;5008969;28;20209;-78
2022/04/18 02:48:05;;;;;;;8.60;4.23;;;5.60;69.80;;;;;;5010390;28;20202;-77
2022/04/18 02:50:31;;;;;;;6.57;4.13;;;5.70;69.70;;;;;;5010309;28;20193;-77
2022/04/18 02:52:57;;;;;;;7.57;4.50;;;5.60;69.70;;;;;;5008970;28;20428;-76
2022/04/18 02:55:25;;;;;;;7.03;5.00;;;5.60;71.00;;;;;;5008934;28;20425;-77
2022/04/18 02:57:51;;;;;;;5.90;3.83;;;5.50;71.60;;;;;;5011890;28;20448;-77
2022/04/18 03:00:17;;;;;;;13.33;4.73;;;5.40;72.00;;;;;;5009551;28;20430;-76
2022/04/18 03:02:43;;;;;;;7.07;5.03;;;5.30;72.60;;;;;;5017618;28;20468;-77
2022/04/18 03:05:11;;;;;;;8.73;4.80;;;5.20;72.00;;;;;;5021079;28;20430;-76
2022/04/18 03:07:38;;;;;;;6.80;4.83;;;5.20;72.00;;;;;;5019422;28;20519;-77
2022/04/18 03:10:05;;;;;;;6.70;4.40;;;5.20;72.10;;;;;;5023282;28;20848;-76
2022/04/18 03:12:31;;;;;;;7.23;3.97;;;5.20;72.40;;;;;;5021558;28;20433;-76
2022/04/18 03:14:57;;;;;;;5.97;4.20;;;5.20;72.60;;;;;;5022429;28;20492;-76
2022/04/18 03:17:23;;;;;;;7.50;4.23;;;5.20;72.70;;;;;;5023295;28;20425;-77
2022/04/18 03:19:49;;;;;;;13.13;4.60;;;5.20;73.00;;;;;;5039221;28;20420;-76
2022/04/18 03:22:14;;;;;;;8.90;4.30;;;5.20;73.20;;;;;;5037705;28;20178;-76
2022/04/18 03:24:40;;;;;;;8.37;4.60;;;5.20;73.20;;;;;;5020917;28;20477;-77
2022/04/18 03:27:06;;;;;;;7.37;4.60;;;5.20;73.00;;;;;;5015531;28;20248;-78
2022/04/18 03:29:32;;;;;;;6.30;4.50;;;5.20;73.00;;;;;;5022484;28;20946;-76
2022/04/18 03:31:58;;;;;;;13.10;4.30;;;5.20;72.90;;;;;;5013853;28;20182;-78
2022/04/18 03:34:25;;;;;;;9.20;4.57;;;5.30;72.30;;;;;;5014204;28;20277;-77
2022/04/18 03:39:51;;;;;;;13.90;4.50;;;5.20;71.60;;;;;;5014354;28;20520;-76
2022/04/18 03:42:29;;;;;;;5.43;3.80;;;5.20;71.80;;;;;;5017676;28;20432;-76
2022/04/18 03:44:58;;;;;;;6.43;3.93;;;5.20;72.10;;;;;;5014857;28;20923;-77
2022/04/18 03:47:24;;;;;;;7.80;4.70;;;5.20;71.70;;;;;;5012785;28;20496;-75
2022/04/18 03:49:50;;;;;;;13.37;5.30;;;5.20;71.80;;;;;;5017039;28;20503;-77
2022/04/18 03:52:16;;;;;;;8.57;5.20;;;5.20;72.30;;;;;;5019560;28;20539;-77
2022/04/18 03:54:43;;;;;;;8.43;4.80;;;5.20;72.90;;;;;;5011827;28;20200;-77
2022/04/18 03:57:09;;;;;;;10.70;4.60;;;5.10;73.30;;;;;;5014282;28;20563;-75
2022/04/18 03:59:35;;;;;;;6.20;4.50;;;5.10;73.90;;;;;;5013172;28;20812;-77
2022/04/18 04:02:02;;;;;;;8.43;4.70;;;5.10;73.70;;;;;;5023110;28;20500;-77
2022/04/18 04:04:28;;;;;;;10.20;5.13;;;5.00;74.60;;;;;;5019368;28;20475;-77
2022/04/18 04:06:54;;;;;;;7.40;4.70;;;4.90;74.60;;;;;;5016405;28;20548;-76
2022/04/18 04:09:20;;;;;;;9.67;4.60;;;4.90;74.60;;;;;;5019567;28;20515;-77
2022/04/18 04:11:46;;;;;;;7.33;4.73;;;4.80;74.90;;;;;;5011814;28;20920;-77
2022/04/18 04:14:11;;;;;;;8.70;6.03;;;4.60;75.70;;;;;;5012498;28;20213;-77
2022/04/18 04:16:40;;;;;;;11.43;4.73;;;4.60;76.10;;;;;;5008848;28;20273;-77
2022/04/18 04:19:06;;;;;;;6.20;4.03;;;4.50;76.20;;;;;;5011044;28;20236;-76
2022/04/18 04:21:33;;;;;;;11.63;4.87;;;4.50;76.50;;;;;;5012339;28;20429;-78
2022/04/18 04:24:00;;;;;;;7.43;4.50;;;4.50;76.50;;;;;;5012394;28;20471;-77
2022/04/18 04:26:25;;;;;;;9.93;4.73;;;4.50;76.40;;;;;;5012455;28;20441;-76
2022/04/18 04:28:51;;;;;;;6.30;4.50;;;4.50;76.80;;;;;;5018765;28;20904;-77
2022/04/18 04:31:17;;;;;;;6.07;4.43;;;4.50;76.80;;;;;;5022332;28;20192;-77
2022/04/18 04:33:43;;;;;;;9.33;4.90;;;4.60;76.80;;;;;;5017923;28;20424;-75
2022/04/18 04:36:09;;;;;;;7.30;4.40;;;4.70;76.20;;;;;;5018947;28;20208;-76
2022/04/18 04:38:34;;;;;;;7.67;4.70;;;4.70;75.80;;;;;;5018526;28;20194;-77
2022/04/18 04:41:02;;;;;;;6.60;4.43;;;4.70;75.50;;;;;;5014553;28;20186;-77
2022/04/18 04:43:28;;;;;;;8.37;4.53;;;4.70;74.80;;;;;;5022957;28;20217;-76
2022/04/18 04:45:57;;;;;;;9.47;4.87;;;4.70;73.90;;;;;;5024940;28;20436;-76
2022/04/18 04:48:23;;;;;;;7.93;5.40;;;4.80;73.90;;;;;;5028186;28;20432;-77
2022/04/18 04:50:49;;;;;;;6.70;4.70;;;4.70;75.40;;;;;;5020558;28;20451;-77
2022/04/18 04:53:15;;;;;;;7.70;5.80;;;4.60;76.20;;;;;;5012473;28;20428;-77
2022/04/18 04:55:41;;;;;;;13.53;5.80;;;4.60;76.50;;;;;;5019595;28;21088;-77
2022/04/18 04:58:09;;;;;;;7.97;5.10;;;4.60;76.80;;;;;;5015953;28;20486;-76
2022/04/18 05:00:35;;;;;;;7.93;4.77;;;4.60;76.80;;;;;;5020537;28;20919;-77
2022/04/18 05:03:01;;;;;;;6.83;4.57;;;4.50;76.80;;;;;;5018274;28;20480;-77
2022/04/18 05:05:27;;;;;;;8.27;5.07;;;4.50;77.10;;;;;;5015393;28;20467;-77
2022/04/18 05:07:55;;;;;;;10.10;5.47;;;4.50;77.30;;;;;;5019128;28;20463;-75
2022/04/18 05:10:21;;;;;;;8.00;4.50;;;4.50;76.70;;;;;;5014228;28;20429;-77
2022/04/18 05:12:47;;;;;;;7.00;4.80;;;4.60;76.50;;;;;;5017976;28;20425;-77
2022/04/18 05:15:13;;;;;;;8.20;4.40;;;4.60;76.50;;;;;;5023743;28;20420;-76
2022/04/18 05:17:39;;;;;;;8.30;5.63;;;4.70;76.20;;;;;;5011633;28;20448;-76
2022/04/18 05:20:05;;;;;;;5.73;4.50;;;4.80;75.90;;;;;;5020335;28;20193;-76
2022/04/18 05:22:31;;;;;;;7.57;4.93;;;4.90;75.10;;;;;;5023917;28;20189;-77
2022/04/18 05:24:58;;;;;;;6.87;4.33;;;4.90;74.60;;;;;;5025204;28;20436;-77
2022/04/18 05:27:24;;;;;;;8.70;5.03;;;5.00;74.00;;;;;;5022571;28;20205;-76
2022/04/18 05:29:50;;;;;;;8.80;5.00;;;5.10;73.70;;;;;;5019151;28;20987;-77
2022/04/18 05:32:17;;;;;;;13.03;5.87;;;5.20;74.00;;;;;;5022812;28;20450;-75
2022/04/18 05:34:43;;;;;;;7.97;5.80;;;5.20;74.60;;;;;;5016025;28;20437;-77
2022/04/18 05:37:09;;;;;;;13.07;6.00;;;5.30;74.60;;;;;;5021266;28;20452;-78
2022/04/18 05:39:35;;;;;;;9.40;5.93;;;5.30;74.50;;;;;;5019458;28;20425;-78
2022/04/18 05:42:01;;;;;;;6.47;5.00;;;5.40;74.20;;;;;;5021553;28;20185;-77
2022/04/18 05:44:27;;;;;;;6.90;4.53;;;5.40;74.20;;;;;;5015705;28;20237;-75
2022/04/18 05:46:53;;;;;;;11.03;6.27;;;5.40;74.00;;;;;;5017461;28;20432;-77
2022/04/18 05:49:19;;;;;;;8.63;5.53;;;5.50;73.70;;;;;;5015120;28;20962;-75
2022/04/18 05:51:45;;;;;;;13.53;6.40;;;5.60;73.70;;;;;;5020526;28;20186;-77
2022/04/18 05:54:11;;;;;;;7.83;5.10;;;5.70;73.70;;;;;;5011912;28;20436;-78
2022/04/18 05:56:36;;;;;;;9.97;5.30;;;5.80;73.50;;;;;;5017133;28;20221;-78
2022/04/18 05:59:02;;;;;;;10.70;5.87;;;5.90;73.30;;;;;;5014930;28;20429;-78
2022/04/18 06:01:31;;;;;;;9.63;6.33;;;6.00;73.30;;;;;;5018594;28;20800;-74
2022/04/18 06:03:57;;;;;;;9.93;6.40;;;6.10;73.00;;;;;;5015778;28;20217;-77
2022/04/18 06:06:23;;;;;;;10.97;6.90;;;6.20;72.60;;;;;;5010247;28;20457;-75
2022/04/18 06:08:48;;;;;;;10.30;6.50;;;6.30;73.50;;;;;;5018764;28;20216;-77
2022/04/18 06:11:14;;;;;;;11.00;6.47;;;6.30;73.90;;;;;;5015170;28;20423;-77
2022/04/18 06:13:41;;;;;;;10.17;6.20;;;6.30;74.00;;;;;;5012783;28;20186;-76
2022/04/18 06:16:07;;;;;;;10.93;6.20;;;6.40;73.70;;;;;;5009471;28;20215;-76
2022/04/18 06:18:33;;;;;;;13.40;6.87;;;6.40;73.70;;;;;;5010234;28;20421;-76
2022/04/18 06:20:59;;;;;;;10.53;6.07;;;6.40;72.90;;;;;;5019095;28;20961;-77
2022/04/18 06:23:25;;;;;;;10.60;7.00;;;6.40;72.60;;;;;;5017838;28;20470;-77
2022/04/18 06:25:51;;;;;;;9.90;6.20;;;6.40;72.70;;;;;;5014945;28;20488;-75
2022/04/18 06:28:19;;;;;;;13.57;6.77;;;6.50;72.40;;;;;;5026201;28;20453;-76
2022/04/18 06:30:44;;;;;;;13.00;6.20;;;6.60;72.30;;;;;;5033426;28;20178;-75
2022/04/18 06:33:12;;;;;;;11.03;6.37;;;6.70;72.10;;;;;;5040041;28;20436;-76
2022/04/18 06:35:42;;;;;;;9.37;5.90;;;6.80;72.00;;;;;;5018093;28;20263;-76
2022/04/18 06:38:08;;;;;;;13.00;6.33;;;6.90;70.50;;;;;;5019809;28;20440;-76
2022/04/18 06:40:34;;;;;;;8.70;5.80;;;6.90;69.40;;;;;;5019360;28;20941;-76
2022/04/18 06:43:00;;;;;;;14.00;6.53;;;7.10;68.60;;;;;;5026721;28;20464;-76
2022/04/18 06:45:28;;;;;;;10.40;6.10;;;7.10;68.80;;;;;;5034188;28;20420;-77
2022/04/18 06:47:54;;;;;;;7.80;5.90;;;7.30;67.90;;;;;;5018622;28;20305;-76
2022/04/18 06:50:20;;;;;;;11.27;6.70;;;7.40;68.00;;;;;;5022126;28;20427;-77
2022/04/18 06:52:46;;;;;;;12.80;7.00;;;7.50;67.70;;;;;;5021613;28;20832;-76
2022/04/18 06:55:12;;;;;;;11.03;6.80;;;7.70;67.60;;;;;;5023983;28;20820;-76
2022/04/18 06:57:38;;;;;;;10.00;6.10;;;7.70;67.70;;;;;;5021374;28;20479;-77
2022/04/18 07:00:06;;;;;;;8.13;6.00;;;7.80;66.90;;;;;;5023603;28;20934;-78
2022/04/18 07:02:32;;;;;;;8.20;6.07;;;7.90;67.00;;;;;;5020649;28;20673;-76
2022/04/18 07:04:58;;;;;;;8.23;5.70;;;8.00;65.80;;;;;;5017317;28;20420;-76
2022/04/18 07:07:24;;;;;;;10.63;7.03;;;8.10;65.70;;;;;;5019706;28;20468;-75
2022/04/18 07:09:49;;;;;;;11.20;5.90;;;8.20;64.80;;;;;;5010397;28;20421;-76
2022/04/18 07:12:22;;;;;;;8.80;6.10;;;8.30;63.90;;;;;;5014865;28;20213;-75
2022/04/18 07:14:49;;;;;;;11.27;6.00;;;8.30;63.10;;;;;;5016933;28;20198;-77
2022/04/18 07:17:14;;;;;;;8.63;5.93;;;8.30;63.10;;;;;;5009639;28;20459;-76
2022/04/18 07:19:40;;;;;;;7.47;6.30;;;8.50;62.80;;;;;;5012033;28;21015;-76
2022/04/18 07:22:06;;;;;;;8.73;5.77;;;8.60;62.00;;;;;;5015021;28;20808;-75
2022/04/18 07:24:32;;;;;;;8.10;6.03;;;8.70;62.00;;;;;;5019947;28;20267;-76
2022/04/18 07:27:01;;;;;;;11.23;6.80;;;8.90;61.00;;;;;;5015318;28;20450;-76
2022/04/18 07:29:27;;;;;;;9.30;5.60;;;8.90;60.60;;;;;;5017457;28;20514;-76
2022/04/18 07:31:53;;;;;;;8.67;5.90;;;9.00;60.10;;;;;;5012854;28;20436;-76
2022/04/18 07:34:19;;;;;;;11.70;6.73;;;9.20;59.20;;;;;;5026043;28;20451;-77
2022/04/18 07:36:45;;;;;;;10.43;5.53;;;9.30;58.90;;;;;;5023698;28;20962;-78
2022/04/18 07:39:11;;;;;;;10.67;5.93;;;9.40;58.00;;;;;;5022051;28;20951;-76
2022/04/18 07:41:36;;;;;;;9.83;5.63;;;9.40;57.60;;;;;;5029368;28;20208;-77
2022/04/18 07:44:03;;;;;;;9.73;5.73;;;9.50;57.60;;;;;;5021607;28;20205;-77
2022/04/18 07:46:30;;;;;;;8.77;5.43;;;9.60;57.00;;;;;;5021681;28;20197;-75
2022/04/18 07:48:56;;;;;;;7.83;5.13;;;9.70;56.00;;;;;;5026635;28;20421;-78
2022/04/18 07:51:31;;;;;;;9.07;5.20;;;9.90;54.50;;;;;;5023944;28;20424;-76
2022/04/18 07:53:58;;;;;;;6.77;4.60;;;10.00;54.80;;;;;;5022134;28;20424;-77
2022/04/18 07:56:25;;;;;;;7.70;4.67;;;10.10;53.30;;;;;;5019604;28;21023;-77
2022/04/18 07:58:52;;;;;;;6.77;4.27;;;10.30;53.20;;;;;;5022335;28;20474;-77
2022/04/18 08:01:19;;;;;;;10.10;4.93;;;10.40;52.50;;;;;;5020081;28;20935;-74
2022/04/18 08:03:45;;;;;;;7.10;4.47;;;10.50;52.50;;;;;;5017122;28;20518;-77
2022/04/18 08:06:11;;;;;;;9.13;5.17;;;10.60;51.60;;;;;;5021682;28;20471;-77
2022/04/18 08:08:37;;;;;;;8.23;4.97;;;10.80;51.40;;;;;;5026402;28;20420;-75
2022/04/18 08:11:03;;;;;;;14.63;7.63;;;10.90;51.60;;;;;;5021884;28;20456;-75
2022/04/18 08:13:30;;;;;;;28.30;14.60;;;11.00;51.20;;;;;;5021020;28;20483;-75
2022/04/18 08:15:55;;;;;;;13.33;8.00;;;11.00;51.30;;;;;;5014033;28;20424;-76
2022/04/18 08:18:22;;;;;;;17.07;6.20;;;11.00;51.70;;;;;;5005947;28;20456;-74
2022/04/18 08:20:48;;;;;;;9.13;5.97;;;10.90;51.80;;;;;;5020831;28;20535;-76
2022/04/18 08:23:14;;;;;;;7.43;5.50;;;11.10;50.70;;;;;;5017809;28;20618;-75
2022/04/18 08:25:40;;;;;;;9.83;5.73;;;11.20;51.20;;;;;;5023467;28;20461;-74
2022/04/18 08:28:06;;;;;;;8.13;5.90;;;11.30;51.30;;;;;;5027235;28;20637;-72
2022/04/18 08:30:33;;;;;;;9.30;5.67;;;11.20;51.30;;;;;;5018535;28;20208;-75
2022/04/18 08:32:59;;;;;;;8.33;5.20;;;11.30;50.90;;;;;;5023472;28;20425;-76
2022/04/18 08:35:26;;;;;;;11.27;5.70;;;11.40;50.70;;;;;;5012252;28;20479;-76
2022/04/18 08:37:51;;;;;;;10.30;6.80;;;11.40;50.10;;;;;;5008159;28;20468;-73
2022/04/18 08:40:18;;;;;;;13.20;7.93;;;11.50;50.70;;;;;;5014496;28;20450;-73
2022/04/18 08:42:44;;;;;;;12.37;5.87;;;11.50;50.50;;;;;;5018772;28;20200;-76
2022/04/18 08:45:14;;;;;;;8.83;5.20;;;11.50;50.30;;;;;;5016277;28;20420;-75
2022/04/18 08:53:12;;;;;;;11.53;5.67;;;11.60;50.90;;;;;;5011882;28;20427;-74
2022/04/18 08:55:40;;;;;;;10.43;5.63;;;11.70;50.30;;;;;;5015436;28;21012;-75
2022/04/18 08:58:06;;;;;;;8.43;5.27;;;11.80;49.90;;;;;;5008617;28;20500;-74
2022/04/18 09:00:32;;;;;;;10.23;5.07;;;12.00;49.70;;;;;;5007529;28;20487;-75
2022/04/18 09:02:57;;;;;;;11.77;5.97;;;12.10;49.50;;;;;;5010993;28;20472;-74
2022/04/18 09:05:23;;;;;;;6.53;4.63;;;12.10;48.50;;;;;;5011487;28;20192;-73
2022/04/18 09:08:00;;;;;;;13.30;5.50;;;12.10;49.00;;;;;;5008747;28;20217;-76
2022/04/18 09:10:26;;;;;;;9.20;5.90;;;12.10;48.50;;;;;;5009369;28;20421;-76
2022/04/18 09:12:52;;;;;;;9.40;5.77;;;12.10;48.90;;;;;;5011657;28;20445;-75
2022/04/18 09:15:38;;;;;;;7.60;5.27;;;12.20;47.90;;;;;;5008806;28;20421;-77
2022/04/18 09:18:21;;;;;;;7.83;5.10;;;12.30;47.50;;;;;;5004446;28;20440;-75
2022/04/18 09:20:48;;;;;;;10.50;5.77;;;12.30;47.40;;;;;;5011934;28;20413;-75
2022/04/18 09:23:34;;;;;;;7.70;5.20;;;12.40;47.70;;;;;;5012240;28;20469;-76
2022/04/18 09:26:01;;;;;;;7.53;4.80;;;12.40;47.50;;;;;;5006995;28;20425;-77
2022/04/18 09:28:35;;;;;;;11.73;5.70;;;12.50;47.40;;;;;;5013233;28;20500;-77
2022/04/18 09:31:06;;;;;;;6.83;4.70;;;12.60;46.60;;;;;;5004409;28;20424;-76
2022/04/18 09:33:54;;;;;;;7.37;4.67;;;12.70;46.70;;;;;;5009568;28;20425;-75
2022/04/18 09:36:21;;;;;;;8.90;5.43;;;12.70;46.30;;;;;;5008774;28;20878;-76
2022/04/18 09:38:52;;;;;;;7.80;5.00;;;12.90;46.30;;;;;;5017166;28;20904;-75
2022/04/18 09:41:25;;;;;;;7.90;4.57;;;12.80;45.90;;;;;;5014120;28;20955;-76
2022/04/18 09:43:54;;;;;;;11.33;5.20;;;12.80;45.70;;;;;;5011898;28;20464;-75
2022/04/18 09:46:20;;;;;;;8.20;5.10;;;12.80;45.80;;;;;;5014572;28;20440;-74
2022/04/18 09:48:49;;;;;;;7.27;4.97;;;12.80;45.40;;;;;;5018165;28;20436;-76
2022/04/18 09:51:23;;;;;;;6.33;4.20;;;12.90;45.70;;;;;;5018334;28;20427;-74
2022/04/18 09:53:52;;;;;;;8.70;5.13;;;12.90;45.50;;;;;;5017354;28;20427;-75
2022/04/18 09:56:21;;;;;;;15.07;8.90;;;13.00;45.40;;;;;;5022078;28;20472;-74
2022/04/18 09:58:47;;;;;;;29.47;14.20;;;13.20;45.10;;;;;;5017181;28;20425;-73
2022/04/18 10:01:13;;;;;;;19.27;11.60;;;13.40;44.90;;;;;;5024809;28;20461;-75
2022/04/18 10:03:41;;;;;;;10.00;5.23;;;13.40;44.20;;;;;;5021542;28;20467;-75
2022/04/18 10:06:07;;;;;;;8.40;5.40;;;13.50;43.10;;;;;;5009324;28;20444;-75
2022/04/18 10:08:34;;;;;;;10.33;6.30;;;13.50;43.20;;;;;;5002537;28;20430;-76
2022/04/18 10:11:02;;;;;;;7.40;5.00;;;13.60;43.00;;;;;;5010096;28;20420;-74
2022/04/18 10:13:29;;;;;;;8.13;4.40;;;13.70;42.60;;;;;;5020457;28;20807;-75
2022/04/18 10:15:58;;;;;;;5.90;4.57;;;13.70;42.70;;;;;;5011075;28;20417;-75
2022/04/18 10:18:24;;;;;;;9.20;4.97;;;13.70;43.00;;;;;;5008692;28;20919;-74
2022/04/18 10:21:08;;;;;;;7.40;4.50;;;13.80;43.20;;;;;;5014611;28;20436;-76
2022/04/18 10:23:45;;;;;;;9.10;5.10;;;13.80;43.10;;;;;;5013693;28;20456;-76
2022/04/18 10:27:04;;;;;;;7.80;4.90;;;13.90;43.00;;;;;;5001166;28;20480;-77
2022/04/18 10:29:48;;;;;;;5.50;4.33;;;14.10;41.80;;;;;;4993225;28;21007;-77
2022/04/18 10:32:20;;;;;;;8.70;4.90;;;14.00;42.40;;;;;;4989559;28;20808;-76
2022/04/18 10:34:50;;;;;;;7.37;4.70;;;14.20;42.40;;;;;;4988747;28;20474;-78
2022/04/18 10:37:16;;;;;;;7.67;5.20;;;14.30;41.20;;;;;;4995507;28;20449;-77
2022/04/18 10:39:42;;;;;;;13.67;6.37;;;14.30;41.10;;;;;;4990330;28;20856;-75
2022/04/18 10:42:43;;;;;;;8.13;4.60;;;14.40;41.10;;;;;;4997682;28;20428;-77
2022/04/18 10:45:11;;;;;;;8.13;4.63;;;14.50;40.80;;;;;;4889311;29;20195;-75
2022/04/18 10:47:55;;;;;;;6.53;4.93;;;14.60;40.70;;;;;;4895271;29;20973;-76
2022/04/18 10:50:24;;;;;;;8.30;4.73;;;14.90;40.00;;;;;;4899279;29;20439;-76
2022/04/18 10:53:26;;;;;;;6.30;3.93;;;15.30;39.50;;;;;;4894407;29;20414;-76
2022/04/18 10:55:52;;;;;;;7.13;4.07;;;15.90;38.20;;;;;;4893078;29;20422;-76
2022/04/18 10:58:21;;;;;;;8.37;5.23;;;16.10;37.90;;;;;;4898133;29;20486;-73
2022/04/18 11:00:52;;;;;;;8.63;4.50;;;16.30;37.20;;;;;;4914806;29;20290;-75
2022/04/18 11:03:55;;;;;;;6.47;4.00;;;16.30;36.70;;;;;;4919732;29;20512;-77
2022/04/18 11:06:23;;;;;;;6.23;4.20;;;16.40;36.60;;;;;;4896439;29;20886;-75
2022/04/18 11:09:06;;;;;;;9.13;4.77;;;16.60;36.00;;;;;;4903453;29;20440;-75
2022/04/18 11:11:52;;;;;;;5.80;4.13;;;16.80;35.50;;;;;;4899286;29;20547;-76
2022/04/18 11:14:26;;;;;;;6.60;4.23;;;16.60;35.90;;;;;;4903097;29;20434;-77
2022/04/18 11:17:00;;;;;;;7.67;4.17;;;16.40;36.30;;;;;;4888579;29;20488;-77
2022/04/18 11:19:36;;;;;;;6.80;4.10;;;16.40;36.40;;;;;;4946461;28;20827;-76
2022/04/18 11:22:08;;;;;;;6.60;4.70;;;16.50;36.20;;;;;;4972311;28;20426;-79
2022/04/18 11:24:41;;;;;;;7.83;4.90;;;16.60;36.00;;;;;;4962277;28;20643;-77
2022/04/18 11:27:17;;;;;;;6.47;4.53;;;16.40;37.00;;;;;;4956757;28;20445;-77
2022/04/18 11:29:54;;;;;;;6.43;4.23;;;16.30;36.00;;;;;;4973039;28;20430;-77
2022/04/18 11:32:28;;;;;;;7.70;4.90;;;16.20;36.40;;;;;;4973461;28;20469;-75
2022/04/18 11:34:56;;;;;;;10.50;4.40;;;16.20;36.60;;;;;;4976707;28;20489;-76
2022/04/18 11:37:36;;;;;;;7.73;4.97;;;16.60;36.00;;;;;;4989766;28;21077;-76
2022/04/18 11:40:10;;;;;;;5.40;4.10;;;16.80;35.90;;;;;;4983283;28;20433;-78
2022/04/18 11:42:37;;;;;;;11.53;5.90;;;17.00;35.10;;;;;;5021913;28;20631;-77
2022/04/18 11:45:06;;;;;;;7.90;4.50;;;17.20;34.70;;;;;;5019763;28;20842;-75
2022/04/18 11:47:41;;;;;;;5.73;3.97;;;17.40;34.70;;;;;;5017720;28;20825;-76
2022/04/18 11:50:08;;;;;;;5.47;4.03;;;17.40;34.10;;;;;;5022970;28;20426;-77
2022/04/18 11:52:40;;;;;;;8.33;4.50;;;17.30;34.30;;;;;;5017661;28;20436;-77
2022/04/18 11:55:28;;;;;;;5.87;4.10;;;17.40;34.30;;;;;;5021359;28;20871;-76
2022/04/18 11:57:54;;;;;;;6.70;4.40;;;17.40;34.30;;;;;;5008398;28;21007;-77
2022/04/18 12:08:46;;;;;;;5.20;3.97;;;17.30;34.00;;;;;;5013384;28;20447;-77
2022/04/18 12:11:12;;;;;;;6.97;4.07;;;17.30;34.00;;;;;;5018323;28;20457;-78
2022/04/18 12:13:42;;;;;;;7.67;4.17;;;17.30;34.40;;;;;;5026021;28;20422;-77
2022/04/18 12:16:09;;;;;;;8.47;3.53;;;17.40;33.60;;;;;;5016008;28;20185;-77
2022/04/18 12:18:34;;;;;;;6.33;4.10;;;17.40;34.30;;;;;;5014846;28;20491;-77
2022/04/18 12:21:00;;;;;;;7.47;3.80;;;17.40;33.50;;;;;;5019929;28;20919;-77
2022/04/18 12:23:27;;;;;;;7.27;4.47;;;17.20;34.00;;;;;;5021183;28;20300;-77
2022/04/18 12:25:54;;;;;;;5.40;3.50;;;17.10;34.00;;;;;;5015640;28;20240;-79
2022/04/18 12:28:24;;;;;;;7.87;4.30;;;17.10;34.50;;;;;;5015164;28;20425;-77
2022/04/18 12:30:51;;;;;;;8.30;3.80;;;17.40;33.90;;;;;;5019830;28;20839;-75
2022/04/18 12:33:22;;;;;;;5.87;3.93;;;17.70;33.10;;;;;;5012866;28;20560;-77
2022/04/18 12:35:53;;;;;;;5.83;3.70;;;17.90;32.90;;;;;;5013830;28;20422;-78
2022/04/18 12:38:37;;;;;;;6.00;4.30;;;17.60;33.70;;;;;;5013385;28;20429;-76
2022/04/18 12:41:03;;;;;;;6.60;4.30;;;17.60;33.30;;;;;;5010364;28;20458;-76
2022/04/18 12:43:34;;;;;;;6.17;3.70;;;17.70;33.30;;;;;;5019200;28;20475;-77
2022/04/18 12:46:00;;;;;;;6.93;4.17;;;17.50;33.60;;;;;;5018337;28;20467;-77
2022/04/18 12:48:33;;;;;;;5.40;3.77;;;17.70;33.60;;;;;;5025512;28;20503;-76
2022/04/18 12:51:01;;;;;;;7.17;3.83;;;17.80;33.20;;;;;;5026923;28;20451;-75
2022/04/18 12:53:49;;;;;;;6.03;3.53;;;18.00;33.10;;;;;;5023936;28;20504;-77
2022/04/18 12:56:21;;;;;;;5.77;3.63;;;18.20;32.80;;;;;;5014978;28;20447;-76
2022/04/18 12:59:02;;;;;;;6.63;4.30;;;18.30;32.40;;;;;;5015871;28;20966;-77
2022/04/18 13:01:35;;;;;;;8.97;4.03;;;18.50;32.30;;;;;;5025792;28;20431;-78
2022/04/18 13:04:05;;;;;;;5.83;3.30;;;18.80;31.30;;;;;;5019707;28;20623;-77
2022/04/18 13:06:34;;;;;;;5.10;3.67;;;18.70;31.10;;;;;;5019474;28;20483;-77
2022/04/18 13:09:09;;;;;;;5.23;3.37;;;18.70;31.50;;;;;;5018709;28;20443;-76
2022/04/18 13:11:36;;;;;;;6.03;3.77;;;18.70;31.10;;;;;;5015961;28;20434;-76
2022/04/18 13:14:03;;;;;;;4.77;3.30;;;18.70;31.20;;;;;;5019645;28;20463;-77
2022/04/18 13:16:29;;;;;;;5.90;3.40;;;18.40;31.50;;;;;;5010275;28;21127;-77
2022/04/18 13:19:03;;;;;;;5.70;3.50;;;18.40;31.70;;;;;;5012693;28;20519;-75